Time;durP1;ratioP1;P1;durP2;ratioP2;P2;SDS_P1;SDS_P2;PMS_P1;PMS_P2;Temp;Humidity;BMP_temperature;BMP_pressure;BME280_temperature;BME280_humidity;BME280_pressure;Samples;Min_cycle;Max_cycle;Signal;HPM_P1;HPM_P2
2022/08/29 15:13:40;;;;;;;0.80;0.80;;;;;;;29.14;35.02;99235.53;6268000;22;1372949;-74
2022/08/29 15:16:07;;;;;;;0.70;0.70;;;;;;;28.68;35.98;99217.81;6295563;22;20020;-74
2022/08/29 15:18:33;;;;;;;0.50;0.50;;;;;;;27.57;38.23;99217.94;6274421;22;20027;-74
2022/08/29 15:21:00;;;;;;;0.65;0.65;;;;;;;27.02;39.54;99209.59;6247144;22;20027;-74
2022/08/29 15:23:26;;;;;;;0.60;0.60;;;;;;;26.83;40.07;99209.94;6247232;22;20024;-74
2022/08/29 15:25:52;;;;;;;0.40;0.40;;;;;;;26.43;41.03;99221.94;6247607;22;20097;-74
2022/08/29 15:28:18;;;;;;;0.35;0.35;;;;;;;25.79;42.64;99214.06;6221396;22;20269;-73
2022/08/29 15:30:46;;;;;;;0.40;0.40;;;;;;;25.31;44.00;99215.78;6274582;22;20027;-73
2022/08/29 15:33:12;;;;;;;0.60;0.60;;;;;;;25.32;44.60;99229.41;6274437;22;20459;-74
2022/08/29 15:35:39;;;;;;;0.60;0.60;;;;;;;25.89;43.33;99225.31;6246836;22;20115;-73
2022/08/29 15:38:06;;;;;;;0.40;0.40;;;;;;;26.00;43.10;99235.78;6280497;22;20030;-73
2022/08/29 15:40:32;;;;;;;0.30;0.30;;;;;;;25.41;44.25;99231.03;6195895;22;20023;-73
2022/08/29 15:42:58;;;;;;;0.38;0.35;;;;;;;24.99;45.79;99244.31;6272770;22;20027;-73
2022/08/29 15:45:25;;;;;;;0.30;0.30;;;;;;;24.48;46.87;99230.63;6282186;22;20019;-74
2022/08/29 15:47:52;;;;;;;0.30;0.30;;;;;;;24.10;48.10;99227.03;6282899;22;20031;-73
2022/08/29 15:50:18;;;;;;;0.30;0.30;;;;;;;23.74;48.99;99237.75;6282535;22;20019;-74
2022/08/29 15:52:44;;;;;;;0.20;0.20;;;;;;;23.53;49.53;99236.25;6272194;22;20093;-74
2022/08/29 15:55:11;;;;;;;0.47;0.30;;;;;;;23.44;50.28;99238.53;6282178;22;20034;-74
2022/08/29 15:57:38;;;;;;;0.30;0.30;;;;;;;23.41;49.33;99231.69;6282809;22;20026;-74
2022/08/29 16:00:06;;;;;;;0.43;0.30;;;;;;;23.27;49.73;99237.88;6273395;22;20471;-74
2022/08/29 16:02:37;;;;;;;0.22;0.22;;;;;;;23.16;50.40;99239.66;6246805;22;20565;-73
2022/08/29 16:05:06;;;;;;;0.43;0.20;;;;;;;23.06;50.46;99249.47;6246427;22;20068;-73
2022/08/29 16:07:32;;;;;;;0.32;0.30;;;;;;;22.94;50.91;99234.53;6272960;22;20028;-73
2022/08/29 16:09:59;;;;;;;0.30;0.30;;;;;;;22.89;51.33;99228.47;6244892;22;20102;-73
2022/08/29 16:12:25;;;;;;;0.20;0.20;;;;;;;22.82;51.35;99223.56;6244648;22;20023;-73
2022/08/29 16:14:51;;;;;;;0.30;0.30;;;;;;;22.73;51.55;99217.47;6256477;22;20031;-74
2022/08/29 16:17:17;;;;;;;0.20;0.20;;;;;;;22.65;51.80;99214.53;6283234;22;20023;-73
2022/08/29 16:19:43;;;;;;;0.28;0.28;;;;;;;22.58;51.86;99211.66;6273267;22;20026;-73
2022/08/29 16:22:11;;;;;;;0.30;0.30;;;;;;;22.55;51.21;99215.13;6272561;22;20308;-73
2022/08/29 16:24:37;;;;;;;0.25;0.20;;;;;;;22.56;50.83;99218.75;6270716;22;20190;-74
2022/08/29 16:27:04;;;;;;;1.08;0.25;;;;;;;22.52;51.05;99213.94;6273510;22;20381;-74
2022/08/29 16:29:30;;;;;;;0.22;0.22;;;;;;;22.44;51.66;99201.00;6246558;22;20210;-73
2022/08/29 16:31:59;;;;;;;0.20;0.20;;;;;;;22.39;51.79;99204.88;6283854;22;20051;-73
2022/08/29 16:34:26;;;;;;;0.20;0.20;;;;;;;22.34;51.72;99196.84;6282686;22;20337;-73
2022/08/29 16:36:54;;;;;;;0.20;0.20;;;;;;;22.31;51.98;99205.94;6272758;22;20024;-74
2022/08/29 16:39:22;;;;;;;0.30;0.30;;;;;;;22.24;52.42;99201.03;6256581;22;20076;-74
2022/08/29 16:41:48;;;;;;;0.20;0.20;;;;;;;22.21;51.90;99204.56;6256426;22;20082;-74
2022/08/29 16:44:14;;;;;;;0.20;0.20;;;;;;;22.21;51.73;99204.56;6195438;22;20046;-73
2022/08/29 16:46:40;;;;;;;0.40;0.38;;;;;;;22.19;51.99;99206.09;6283420;22;20483;-74
2022/08/29 16:49:06;;;;;;;0.30;0.30;;;;;;;22.14;52.28;99209.19;6283206;22;20081;-73
2022/08/29 16:51:32;;;;;;;0.20;0.20;;;;;;;22.12;52.51;99203.19;6273643;22;20020;-74
2022/08/29 16:53:59;;;;;;;0.20;0.20;;;;;;;22.10;52.93;99204.38;6283411;22;20028;-74
2022/08/29 16:56:26;;;;;;;0.30;0.30;;;;;;;22.10;53.35;99209.13;6282804;22;20016;-74
2022/08/29 16:58:59;;;;;;;0.30;0.30;;;;;;;22.02;53.96;99204.59;6272866;22;20259;-74
2022/08/29 17:01:25;;;;;;;0.25;0.25;;;;;;;21.92;54.11;99205.97;6282795;22;20512;-73
2022/08/29 17:03:51;;;;;;;0.38;0.30;;;;;;;21.87;54.53;99201.53;6245549;22;20019;-74
2022/08/29 17:06:17;;;;;;;0.25;0.25;;;;;;;21.86;54.79;99199.91;6273205;22;20046;-74
2022/08/29 17:18:32;;;;;;;0.30;0.30;;;;;;;21.74;55.84;99195.28;6272918;22;20027;-74
2022/08/29 17:20:58;;;;;;;0.20;0.20;;;;;;;21.68;55.64;99191.97;6245345;22;20427;-73
2022/08/29 17:23:25;;;;;;;0.20;0.20;;;;;;;21.68;55.80;99185.63;6245446;22;20035;-74
2022/08/29 17:25:52;;;;;;;0.20;0.20;;;;;;;21.68;55.97;99191.19;6282382;22;20024;-74
2022/08/29 17:28:18;;;;;;;0.20;0.20;;;;;;;21.62;56.03;99182.28;6246010;22;20015;-74
2022/08/29 17:30:47;;;;;;;0.20;0.20;;;;;;;21.56;55.86;99180.16;6283293;22;20031;-74
2022/08/29 17:33:13;;;;;;;0.30;0.30;;;;;;;21.53;56.19;99190.84;6273021;22;20130;-74
2022/08/29 17:35:39;;;;;;;0.20;0.20;;;;;;;21.52;56.42;99182.84;6283424;22;20463;-74
2022/08/29 17:38:06;;;;;;;0.30;0.30;;;;;;;21.52;56.70;99182.84;6246547;22;20107;-73
2022/08/29 17:40:32;;;;;;;0.30;0.30;;;;;;;21.48;56.42;99191.16;6247757;22;20390;-74
2022/08/29 17:42:58;;;;;;;0.13;0.13;;;;;;;21.45;56.10;99191.06;6275472;22;20057;-74
2022/08/29 17:45:25;;;;;;;0.30;0.30;;;;;;;21.45;56.05;99177.16;6285368;22;20023;-74
2022/08/29 17:47:52;;;;;;;0.20;0.20;;;;;;;21.46;56.17;99181.53;6248063;22;20016;-74
2022/08/29 17:50:19;;;;;;;0.63;0.32;;;;;;;21.43;56.20;99185.06;6247747;22;20028;-74
2022/08/29 17:52:45;;;;;;;0.23;0.23;;;;;;;21.44;56.12;99187.47;6285076;22;20027;-73
2022/08/29 17:55:11;;;;;;;0.30;0.30;;;;;;;21.43;56.47;99187.84;6285207;22;20046;-74
2022/08/29 17:57:37;;;;;;;0.40;0.40;;;;;;;21.45;56.05;99185.50;6248027;22;20533;-74
2022/08/29 18:00:05;;;;;;;0.20;0.20;;;;;;;21.45;56.65;99189.06;6274668;22;20510;-74
2022/08/29 18:02:36;;;;;;;0.20;0.20;;;;;;;21.46;55.99;99193.47;6248913;22;20108;-74
2022/08/29 18:05:05;;;;;;;1.10;0.40;;;;;;;21.44;56.11;99189.44;6231916;22;20023;-73
2022/08/29 18:07:32;;;;;;;0.30;0.30;;;;;;;21.37;55.74;99190.88;6284244;22;20020;-73
2022/08/29 18:09:59;;;;;;;0.35;0.28;;;;;;;21.34;56.21;99183.28;6274400;22;20099;-74
2022/08/29 18:12:25;;;;;;;0.20;0.20;;;;;;;21.28;56.57;99183.91;6284030;22;20463;-74
2022/08/29 18:14:53;;;;;;;0.20;0.20;;;;;;;21.22;56.85;99183.38;6284954;22;20490;-73
2022/08/29 18:17:19;;;;;;;0.30;0.30;;;;;;;21.13;57.27;99175.25;6274883;22;20070;-73
2022/08/29 18:19:45;;;;;;;0.20;0.20;;;;;;;21.08;57.55;99175.53;6274530;22;20020;-73
2022/08/29 18:22:13;;;;;;;0.20;0.20;;;;;;;21.03;57.85;99168.28;6274098;22;20038;-74
2022/08/29 18:24:39;;;;;;;0.22;0.22;;;;;;;21.06;57.68;99173.09;6257649;22;20423;-74
2022/08/29 18:27:05;;;;;;;0.30;0.30;;;;;;;21.03;57.77;99165.50;6274617;22;20023;-74
2022/08/29 18:29:31;;;;;;;0.20;0.20;;;;;;;20.95;58.49;99166.50;6274304;22;20105;-74
2022/08/29 18:31:59;;;;;;;0.20;0.20;;;;;;;20.86;58.86;99163.94;6246729;22;20076;-74
2022/08/29 18:34:25;;;;;;;0.30;0.30;;;;;;;20.76;59.08;99165.25;6284072;22;20119;-74
2022/08/29 18:36:52;;;;;;;0.30;0.30;;;;;;;20.71;59.60;99154.41;6284434;22;20363;-75
2022/08/29 18:39:19;;;;;;;0.20;0.20;;;;;;;20.72;59.65;99155.22;6247596;22;20481;-74
2022/08/29 18:41:46;;;;;;;0.30;0.30;;;;;;;20.67;60.19;99154.28;6274724;22;20027;-74
2022/08/29 18:44:12;;;;;;;0.20;0.20;;;;;;;20.60;60.18;99151.34;6284728;22;20077;-74
2022/08/29 18:46:43;;;;;;;0.20;0.20;;;;;;;20.49;60.81;99150.28;6247834;22;20026;-74
2022/08/29 18:49:09;;;;;;;0.30;0.30;;;;;;;20.47;60.65;99150.66;6258049;22;20046;-74
2022/08/29 18:51:36;;;;;;;0.20;0.20;;;;;;;20.46;60.83;99140.72;6285147;22;20049;-73
2022/08/29 18:54:03;;;;;;;0.20;0.20;;;;;;;20.42;60.88;99139.00;6222336;22;20277;-75
2022/08/29 18:56:31;;;;;;;0.30;0.30;;;;;;;20.42;61.34;99134.25;6274447;22;20128;-74
2022/08/29 18:58:58;;;;;;;0.20;0.20;;;;;;;20.43;61.32;99127.53;6257527;22;20031;-75
2022/08/29 19:01:26;;;;;;;0.30;0.30;;;;;;;20.37;61.49;99131.75;6274117;22;20477;-74
2022/08/29 19:03:53;;;;;;;0.20;0.20;;;;;;;20.31;62.03;99122.06;6284580;22;20027;-74
2022/08/29 19:06:19;;;;;;;0.25;0.25;;;;;;;20.22;62.69;99119.47;6246734;22;20556;-74
2022/08/29 19:08:45;;;;;;;0.20;0.20;;;;;;;20.16;62.86;99124.47;6284290;22;20023;-75
2022/08/29 19:11:12;;;;;;;0.27;0.27;;;;;;;20.12;62.63;99115.22;6257076;22;20034;-74
2022/08/29 19:13:40;;;;;;;0.60;0.30;;;;;;;20.14;62.64;99115.72;6247102;22;20270;-74
2022/08/29 19:16:08;;;;;;;0.20;0.20;;;;;;;20.12;63.07;99120.78;6274203;22;20023;-74
2022/08/29 19:18:34;;;;;;;0.15;0.15;;;;;;;20.07;63.29;99112.72;6247025;22;20358;-74
2022/08/29 19:21:08;;;;;;;0.20;0.20;;;;;;;20.07;63.24;99110.78;6247012;22;20023;-73
2022/08/29 19:23:36;;;;;;;0.20;0.20;;;;;;;20.09;63.23;99114.00;6283518;22;20026;-75
2022/08/29 19:26:05;;;;;;;0.20;0.20;;;;;;;20.11;62.83;99110.84;6274742;22;20768;-75
2022/08/29 19:28:32;;;;;;;0.20;0.20;;;;;;;20.10;62.94;99107.28;6284703;22;20027;-74
2022/08/29 19:30:59;;;;;;;0.20;0.20;;;;;;;20.11;63.12;99100.56;6247246;22;20024;-74
2022/08/29 19:33:26;;;;;;;0.30;0.30;;;;;;;20.13;62.99;99105.75;6247022;22;20027;-74
2022/08/29 19:35:52;;;;;;;0.28;0.28;;;;;;;20.09;62.58;99114.00;6221444;22;20019;-74
2022/08/29 19:38:20;;;;;;;0.30;0.30;;;;;;;20.08;63.09;99106.03;6274248;22;20027;-74
2022/08/29 19:40:47;;;;;;;0.30;0.30;;;;;;;20.15;62.81;99111.78;6283916;22;20023;-73
2022/08/29 19:43:13;;;;;;;;;;;;;;;20.12;63.31;99110.50;6247489;22;20482;-74
2022/08/29 19:45:41;;;;;;;0.20;0.20;;;;;;;20.09;63.28;99113.19;6222146;22;19919;-74
2022/08/29 19:48:08;;;;;;;0.75;0.20;;;;;;;20.08;63.38;99111.56;6284117;22;20330;-74
2022/08/29 19:50:34;;;;;;;0.20;0.20;;;;;;;20.06;63.26;99117.50;6273438;22;20024;-75
2022/08/29 19:53:00;;;;;;;0.43;0.30;;;;;;;20.02;63.95;99121.31;6283542;22;20085;-74
2022/08/29 19:55:27;;;;;;;0.20;0.20;;;;;;;20.00;63.87;99118.09;6247089;22;20066;-74
2022/08/29 19:57:53;;;;;;;0.20;0.20;;;;;;;19.96;64.12;99118.78;6274448;22;20026;-74
2022/08/29 20:00:22;;;;;;;0.30;0.30;;;;;;;19.96;63.93;99120.78;6256492;22;20038;-74
2022/08/29 20:02:50;;;;;;;0.30;0.30;;;;;;;20.02;63.97;99119.34;6273035;22;20375;-74
2022/08/29 20:05:18;;;;;;;0.30;0.30;;;;;;;20.07;63.78;99110.78;6273858;22;20387;-75
2022/08/29 20:07:44;;;;;;;0.20;0.20;;;;;;;20.09;63.86;99111.22;6273668;22;20058;-74
2022/08/29 20:10:13;;;;;;;0.30;0.30;;;;;;;20.10;64.04;99114.78;6221370;22;20114;-74
2022/08/29 20:12:40;;;;;;;0.25;0.25;;;;;;;20.14;63.98;99109.34;6283975;22;20357;-74
2022/08/29 20:15:09;;;;;;;0.20;0.20;;;;;;;20.12;64.17;99107.72;6273774;22;20541;-74
2022/08/29 20:17:35;;;;;;;0.25;0.25;;;;;;;20.15;64.48;99109.00;6231539;22;20489;-74
2022/08/29 20:20:05;;;;;;;0.25;0.25;;;;;;;20.14;64.43;99099.06;6221379;22;20020;-74
2022/08/29 20:22:32;;;;;;;0.40;0.40;;;;;;;20.11;64.36;99100.56;6272935;22;20024;-74
2022/08/29 20:24:58;;;;;;;0.30;0.30;;;;;;;20.06;64.72;99098.06;6273995;22;20069;-74
2022/08/29 20:27:24;;;;;;;0.30;0.30;;;;;;;20.07;65.02;99093.31;6246339;22;20055;-74
2022/08/29 20:29:51;;;;;;;0.65;0.30;;;;;;;20.09;65.34;99102.06;6283672;22;20016;-74
2022/08/29 20:32:17;;;;;;;0.20;0.20;;;;;;;20.01;66.19;99105.84;6245876;22;20046;-74
2022/08/29 20:34:43;;;;;;;0.20;0.20;;;;;;;19.94;66.61;99110.03;6245994;22;20045;-75
2022/08/29 20:37:09;;;;;;;0.30;0.20;;;;;;;19.89;66.72;99098.34;6274017;22;20026;-74
2022/08/29 20:39:39;;;;;;;0.30;0.30;;;;;;;19.91;67.30;99093.28;6283684;22;20065;-74
2022/08/29 20:42:07;;;;;;;0.40;0.20;;;;;;;19.91;67.38;99091.28;6283277;22;20034;-74
2022/08/29 20:44:40;;;;;;;0.25;0.25;;;;;;;19.93;67.16;99085.44;6273100;22;20469;-74
2022/08/29 20:47:10;;;;;;;0.28;0.28;;;;;;;20.02;67.04;99088.81;6273164;22;20028;-74
2022/08/29 20:49:36;;;;;;;0.20;0.20;;;;;;;20.05;67.15;99090.09;6273721;22;20047;-74
2022/08/29 20:52:04;;;;;;;0.20;0.20;;;;;;;20.04;67.43;99085.69;6220774;22;20030;-74
2022/08/29 20:54:31;;;;;;;0.32;0.20;;;;;;;20.05;67.48;99082.56;6283578;22;20027;-74
2022/08/29 20:56:58;;;;;;;0.20;0.20;;;;;;;20.08;67.62;99081.88;6246640;22;20024;-74
2022/08/29 20:59:25;;;;;;;0.25;0.25;;;;;;;20.14;67.13;99085.19;6257101;22;20019;-74
2022/08/29 21:01:51;;;;;;;0.22;0.22;;;;;;;20.14;67.02;99082.41;6246099;22;20024;-74
2022/08/29 21:07:05;;;;;;;0.22;0.22;;;;;;;20.13;67.67;99075.22;6283715;22;20358;-74
2022/08/29 21:09:31;;;;;;;0.25;0.25;;;;;;;20.09;67.60;99071.56;6283226;22;20024;-74
2022/08/29 21:11:59;;;;;;;0.20;0.20;;;;;;;20.09;67.49;99072.38;6255925;22;20043;-73
2022/08/29 21:14:28;;;;;;;0.25;0.25;;;;;;;20.11;67.72;99072.00;6245293;22;20028;-73
2022/08/29 21:16:55;;;;;;;0.20;0.20;;;;;;;20.16;67.31;99066.22;6256417;22;20039;-73
2022/08/29 21:19:21;;;;;;;;;;;;;;;20.21;67.54;99073.44;6284399;22;20045;-73
2022/08/29 21:21:50;;;;;;;0.73;0.37;;;;;;;20.22;67.50;99073.09;6273291;22;19982;-73
2022/08/29 21:24:16;;;;;;;0.43;0.22;;;;;;;20.19;67.86;99075.75;6256339;22;20023;-73
2022/08/29 21:26:43;;;;;;;0.20;0.20;;;;;;;20.14;68.05;99071.31;6246013;22;20149;-75
2022/08/29 21:29:11;;;;;;;0.30;0.30;;;;;;;20.12;68.51;99059.75;6246644;22;20031;-73
2022/08/29 21:31:37;;;;;;;0.30;0.30;;;;;;;20.09;68.80;99066.00;6273285;22;20028;-73
2022/08/29 21:34:04;;;;;;;0.20;0.20;;;;;;;20.05;69.13;99062.34;6272909;22;20043;-73
2022/08/29 21:36:30;;;;;;;0.30;0.30;;;;;;;20.02;69.28;99058.31;6230627;22;20490;-75
2022/08/29 21:38:59;;;;;;;0.20;0.20;;;;;;;20.04;69.34;99063.50;6282997;22;20030;-74
2022/08/29 21:41:27;;;;;;;0.20;0.20;;;;;;;20.07;69.02;99058.06;6273733;22;20016;-73
2022/08/29 21:43:53;;;;;;;0.30;0.30;;;;;;;20.09;69.49;99064.06;6273827;22;20020;-74
2022/08/29 21:46:23;;;;;;;0.20;0.20;;;;;;;20.11;69.39;99063.69;6245784;22;20022;-73
2022/08/29 21:48:52;;;;;;;0.20;0.20;;;;;;;20.15;69.19;99061.00;6282826;22;20375;-75
2022/08/29 21:51:20;;;;;;;0.30;0.30;;;;;;;20.16;69.34;99054.28;6283213;22;20023;-73
2022/08/29 21:53:48;;;;;;;0.20;0.20;;;;;;;20.10;69.70;99049.00;6220724;22;20094;-75
2022/08/29 21:56:14;;;;;;;0.30;0.30;;;;;;;20.05;70.11;99056.78;6220451;22;20050;-73
2022/08/29 21:58:41;;;;;;;0.20;0.20;;;;;;;20.05;70.06;99054.81;6273340;22;20023;-73
2022/08/29 22:01:10;;;;;;;0.20;0.20;;;;;;;20.05;70.65;99059.56;6245881;22;20016;-73
2022/08/29 22:03:37;;;;;;;0.30;0.30;;;;;;;20.07;70.17;99054.47;6283165;22;20027;-73
2022/08/29 22:06:03;;;;;;;0.30;0.30;;;;;;;20.05;70.30;99045.69;6256278;22;20020;-73
2022/08/29 22:08:29;;;;;;;0.23;0.23;;;;;;;20.11;70.43;99045.06;6246379;22;20015;-74
2022/08/29 22:10:55;;;;;;;0.30;0.30;;;;;;;20.14;70.17;99042.75;6283399;22;20069;-73
2022/08/29 22:13:21;;;;;;;0.20;0.20;;;;;;;20.10;70.29;99039.88;6283312;22;20019;-72
2022/08/29 22:18:32;;;;;;;0.30;0.30;;;;;;;19.94;71.06;99032.34;6245460;22;20158;-73
2022/08/29 22:21:01;;;;;;;0.22;0.22;;;;;;;19.93;71.50;99027.97;6282810;22;20134;-72
2022/08/29 22:23:28;;;;;;;0.20;0.20;;;;;;;19.91;71.76;99032.25;6272762;22;20048;-74
2022/08/29 22:25:55;;;;;;;0.20;0.20;;;;;;;19.85;72.21;99040.03;6246312;22;20073;-73
2022/08/29 22:28:21;;;;;;;0.28;0.28;;;;;;;19.80;72.56;99038.31;6196899;22;20019;-73
2022/08/29 22:30:48;;;;;;;0.30;0.30;;;;;;;19.77;73.20;99041.81;6248188;22;20098;-73
2022/08/29 22:33:14;;;;;;;0.20;0.20;;;;;;;19.70;73.40;99042.41;6258084;22;20346;-74
2022/08/29 22:35:40;;;;;;;0.22;0.22;;;;;;;19.71;73.55;99040.44;6284684;22;20023;-73
2022/08/29 22:38:08;;;;;;;0.57;0.35;;;;;;;19.74;73.32;99031.41;6274688;22;20362;-73
2022/08/29 22:40:34;;;;;;;0.20;0.20;;;;;;;19.77;73.29;99032.66;6274785;22;20023;-73
2022/08/29 22:43:00;;;;;;;0.25;0.25;;;;;;;19.75;73.12;99032.22;6247526;22;20023;-74
2022/08/29 22:45:26;;;;;;;0.20;0.20;;;;;;;19.78;73.50;99031.50;6274682;22;20019;-71
2022/08/29 22:47:52;;;;;;;0.30;0.30;;;;;;;19.80;73.41;99029.16;6283337;22;20027;-73
2022/08/29 22:50:22;;;;;;;0.20;0.20;;;;;;;19.79;73.24;99028.38;6246976;22;20020;-72
2022/08/29 22:52:49;;;;;;;0.20;0.20;;;;;;;19.76;73.51;99026.31;6274293;22;20106;-73
2022/08/29 22:55:19;;;;;;;0.25;0.25;;;;;;;19.75;73.65;99027.50;6247027;22;20313;-73
2022/08/29 22:57:45;;;;;;;0.20;0.20;;;;;;;19.78;73.61;99025.94;6245348;22;20355;-73
2022/08/29 23:00:14;;;;;;;0.20;0.20;;;;;;;19.73;73.83;99024.25;6271992;22;20379;-73
2022/08/29 23:02:41;;;;;;;0.20;0.20;;;;;;;19.75;73.50;99023.91;6269502;22;20051;-69
2022/08/29 23:05:07;;;;;;;0.25;0.25;;;;;;;19.75;73.95;99021.13;6228675;22;20020;-69
2022/08/29 23:07:33;;;;;;;0.30;0.30;;;;;;;19.73;73.95;99021.47;6266502;22;20106;-68
2022/08/29 23:09:59;;;;;;;0.60;0.30;;;;;;;19.75;73.89;99015.56;6272876;22;20451;-68
2022/08/29 23:12:27;;;;;;;1.08;0.40;;;;;;;19.70;74.30;99020.22;6279054;22;20147;-67
2022/08/29 23:14:53;;;;;;;0.20;0.20;;;;;;;19.66;74.34;99019.31;6243036;22;20020;-69
2022/08/29 23:17:19;;;;;;;0.20;0.20;;;;;;;19.64;74.32;99015.31;6243488;22;20073;-69
2022/08/29 23:19:45;;;;;;;0.30;0.30;;;;;;;19.62;74.37;99021.19;6277262;22;20061;-66
2022/08/29 23:22:12;;;;;;;0.28;0.28;;;;;;;19.62;74.74;99025.94;6213916;22;20020;-69
2022/08/29 23:24:39;;;;;;;0.20;0.20;;;;;;;19.62;74.84;99025.94;6241999;22;20024;-68
2022/08/29 23:27:05;;;;;;;0.20;0.20;;;;;;;19.59;75.02;99024.69;6243198;22;20024;-67
2022/08/29 23:29:35;;;;;;;0.20;0.20;;;;;;;19.53;75.31;99021.34;6240663;22;20863;-68
2022/08/29 23:32:01;;;;;;;0.20;0.20;;;;;;;19.52;75.63;99018.94;6243960;22;20024;-68
2022/08/29 23:34:29;;;;;;;0.20;0.20;;;;;;;19.52;75.43;99019.75;6270157;22;20463;-68
2022/08/29 23:36:55;;;;;;;0.20;0.20;;;;;;;19.51;75.72;99017.31;6241007;22;20019;-68
2022/08/29 23:39:22;;;;;;;0.20;0.20;;;;;;;19.47;76.04;99010.88;6238826;22;20503;-68
2022/08/29 23:41:48;;;;;;;0.20;0.20;;;;;;;19.46;76.40;99014.81;6215197;22;20122;-69
2022/08/29 23:44:14;;;;;;;0.20;0.20;;;;;;;19.42;76.49;99007.22;6274805;22;20077;-68
2022/08/29 23:46:42;;;;;;;0.20;0.20;;;;;;;19.39;76.32;99001.56;6238945;22;20480;-68
2022/08/29 23:49:08;;;;;;;0.20;0.20;;;;;;;19.36;76.91;99011.41;6279195;22;20114;-68
2022/08/29 23:51:34;;;;;;;0.20;0.20;;;;;;;19.34;77.29;99008.16;6276614;22;20525;-67
2022/08/29 23:54:00;;;;;;;0.20;0.20;;;;;;;19.30;77.55;99010.03;6268740;22;20027;-68
2022/08/29 23:56:26;;;;;;;0.60;0.30;;;;;;;19.26;77.68;99007.16;6268570;22;20058;-68
2022/08/29 23:58:55;;;;;;;0.22;0.22;;;;;;;19.26;78.00;99009.13;6265878;22;20347;-68
